createdAt,value
2022-12-22T00:01:05.050Z,7.06
2022-12-22T00:06:28.111Z,7.16
2022-12-22T00:11:49.649Z,7.18
2022-12-22T00:17:10.181Z,7.20
2022-12-22T00:22:32.995Z,7.26
2022-12-22T00:27:54.702Z,7.28
2022-12-22T00:33:15.249Z,7.30
2022-12-22T00:38:38.335Z,7.41
2022-12-22T00:44:00.114Z,7.44
2022-12-22T00:49:20.791Z,7.42
2022-12-22T00:54:41.517Z,7.37
2022-12-22T01:00:03.465Z,7.49
2022-12-22T01:05:24.492Z,7.55
2022-12-22T01:10:46.294Z,7.58
2022-12-22T01:16:07.932Z,7.61
2022-12-22T01:21:29.145Z,7.63
2022-12-22T01:26:49.183Z,7.63
2022-12-22T01:32:10.747Z,7.58
2022-12-22T01:37:31.149Z,7.56
2022-12-22T01:42:53.658Z,7.51
2022-12-22T01:48:15.466Z,7.49
2022-12-22T01:53:39.379Z,7.50
2022-12-22T01:59:03.278Z,7.52
2022-12-22T02:04:25.342Z,7.48
2022-12-22T02:09:55.844Z,7.49
2022-12-22T02:15:21.955Z,7.60
2022-12-22T02:20:55.078Z,7.64
2022-12-22T02:26:21.094Z,7.73
2022-12-22T02:31:43.721Z,7.76
2022-12-22T02:37:13.189Z,7.77
2022-12-22T02:42:41.628Z,7.82
2022-12-22T02:48:08.865Z,7.86
2022-12-22T02:53:32.210Z,7.89
2022-12-22T02:58:53.148Z,7.86
2022-12-22T03:04:14.854Z,7.84
2022-12-22T03:09:35.260Z,7.80
2022-12-22T03:14:55.616Z,7.77
2022-12-22T03:20:17.270Z,7.78
2022-12-22T03:25:37.761Z,7.79
2022-12-22T03:30:40.876Z,7.78
2022-12-22T03:35:46.365Z,7.77
2022-12-22T03:40:49.129Z,7.75
2022-12-22T03:46:12.965Z,7.76
2022-12-22T03:51:17.163Z,7.77
2022-12-22T03:56:19.932Z,7.81
2022-12-22T04:01:22.999Z,7.84
2022-12-22T04:06:27.201Z,7.82
2022-12-22T04:11:47.543Z,7.81
2022-12-22T04:16:50.498Z,7.78
2022-12-22T04:21:55.386Z,7.81
2022-12-22T04:26:58.188Z,7.79
2022-12-22T04:32:01.023Z,7.76
2022-12-22T04:37:14.820Z,7.81
2022-12-22T04:42:20.189Z,7.79
2022-12-22T04:47:23.009Z,7.71
2022-12-22T04:52:27.647Z,7.73
2022-12-22T04:57:31.135Z,7.69
2022-12-22T05:02:36.202Z,7.73
2022-12-22T05:07:40.409Z,7.78
2022-12-22T05:12:58.092Z,7.77
2022-12-22T05:18:01.569Z,7.69
2022-12-22T05:23:05.662Z,7.69
2022-12-22T05:28:08.405Z,7.65
2022-12-22T05:33:11.138Z,7.63
2022-12-22T05:38:15.244Z,7.53
2022-12-22T05:43:17.994Z,7.44
2022-12-22T05:48:27.413Z,7.34
2022-12-22T05:53:33.677Z,7.19
2022-12-22T05:58:39.399Z,7.02
2022-12-22T06:03:42.263Z,7.00
2022-12-22T06:08:46.495Z,6.94
2022-12-22T06:13:49.212Z,6.92
2022-12-22T06:18:51.907Z,6.89
2022-12-22T06:23:56.179Z,6.86
2022-12-22T06:28:58.844Z,6.86
2022-12-22T06:34:01.392Z,6.85
2022-12-22T06:39:05.766Z,6.86
2022-12-22T06:44:08.514Z,6.83
2022-12-22T06:49:11.212Z,6.89
2022-12-22T06:54:19.471Z,6.92
2022-12-22T06:59:25.009Z,6.94
2022-12-22T07:04:29.688Z,6.98
2022-12-22T07:09:33.850Z,7.01
2022-12-22T07:14:36.593Z,7.03
2022-12-22T07:19:39.341Z,6.98
2022-12-22T07:24:43.486Z,6.98
2022-12-22T07:29:46.227Z,7.03
2022-12-22T07:34:48.984Z,7.02
2022-12-22T07:39:53.069Z,6.99
2022-12-22T07:44:55.835Z,6.97
2022-12-22T07:50:15.944Z,7.02
2022-12-22T07:55:20.536Z,7.09
2022-12-22T08:00:24.551Z,7.13
2022-12-22T08:05:27.302Z,7.15
2022-12-22T08:10:32.776Z,7.19
2022-12-22T08:15:35.567Z,7.34
2022-12-22T08:20:38.409Z,7.42
2022-12-22T08:25:42.613Z,7.44
2022-12-22T08:30:46.347Z,7.58
2022-12-22T08:35:51.875Z,7.49
2022-12-22T08:40:55.993Z,7.06
2022-12-22T08:45:58.703Z,7.17
2022-12-22T08:51:01.461Z,7.24
2022-12-22T08:56:06.064Z,7.22
2022-12-22T09:01:08.882Z,7.13
2022-12-22T09:06:11.647Z,6.92
2022-12-22T09:11:16.967Z,7.08
2022-12-22T09:16:20.938Z,7.19
2022-12-22T09:21:24.739Z,7.21
2022-12-22T09:26:30.211Z,7.30
2022-12-22T09:31:34.157Z,7.28
2022-12-22T09:36:37.096Z,7.49
2022-12-22T09:41:47.131Z,7.48
2022-12-22T09:46:50.812Z,7.18
2022-12-22T09:51:57.166Z,7.22
2022-12-22T09:57:02.524Z,7.27
2022-12-22T10:02:17.364Z,7.59
2022-12-22T10:07:27.657Z,7.44
2022-12-22T10:12:31.843Z,7.53
2022-12-22T10:17:35.804Z,7.50
2022-12-22T10:22:50.709Z,7.84
2022-12-22T10:27:56.089Z,7.82
2022-12-22T10:33:07.933Z,8.08
2022-12-22T10:38:28.124Z,8.26
2022-12-22T10:43:32.986Z,8.15
2022-12-22T10:48:37.910Z,8.16
2022-12-22T10:53:46.264Z,8.21
2022-12-22T10:58:50.429Z,8.05
2022-12-22T11:03:53.314Z,7.69
2022-12-22T11:09:23.706Z,7.59
2022-12-22T11:14:31.917Z,7.90
2022-12-22T11:19:46.795Z,8.12
2022-12-22T11:25:03.677Z,8.14
2022-12-22T11:30:11.165Z,7.94
2022-12-22T11:35:20.723Z,7.86
2022-12-22T11:40:33.938Z,8.24
2022-12-22T11:45:53.099Z,8.32
2022-12-22T11:51:08.953Z,8.77
2022-12-22T11:56:23.590Z,8.67
2022-12-22T12:01:43.697Z,8.40
2022-12-22T12:07:04.926Z,8.86
2022-12-22T12:12:17.999Z,8.67
2022-12-22T12:17:35.703Z,8.75
2022-12-22T12:22:49.682Z,9.60
2022-12-22T12:28:09.015Z,8.70
2022-12-22T12:33:18.137Z,8.28
2022-12-22T12:39:05.581Z,8.56
2022-12-22T12:43:54.468Z,8.14
2022-12-22T12:48:57.296Z,8.08
2022-12-22T12:54:42.948Z,7.59
2022-12-22T12:59:51.565Z,7.45
2022-12-22T13:05:33.324Z,7.66
2022-12-22T13:10:38.289Z,7.78
2022-12-22T13:15:44.936Z,8.16
2022-12-22T13:21:12.226Z,8.71
2022-12-22T13:26:22.701Z,8.14
2022-12-22T13:31:34.407Z,8.63
2022-12-22T13:36:38.119Z,8.58
2022-12-22T13:41:42.896Z,9.39
2022-12-22T13:46:47.983Z,9.37
2022-12-22T13:51:50.847Z,8.91
2022-12-22T13:56:56.688Z,8.73
2022-12-22T14:02:03.111Z,8.97
2022-12-22T14:07:11.945Z,9.10
2022-12-22T14:12:18.059Z,9.04
2022-12-22T14:17:24.887Z,8.25
2022-12-22T14:22:30.218Z,7.89
2022-12-22T14:27:36.995Z,7.90
2022-12-22T14:32:42.703Z,7.51
2022-12-22T14:37:45.473Z,7.36
2022-12-22T14:42:48.338Z,7.50
2022-12-22T14:47:54.367Z,7.58
2022-12-22T14:52:59.323Z,7.24
2022-12-22T14:58:06.559Z,7.18
2022-12-22T15:03:31.972Z,7.09
2022-12-22T15:08:39.132Z,6.92
2022-12-22T15:13:42.301Z,6.82
2022-12-22T15:18:47.343Z,6.84
2022-12-22T15:23:50.492Z,7.02
2022-12-22T15:28:53.304Z,7.00
2022-12-22T15:34:00.446Z,6.68
2022-12-22T15:39:03.183Z,6.74
2022-12-22T15:44:06.011Z,6.76
2022-12-22T15:49:16.244Z,6.63
2022-12-22T15:54:19.826Z,6.62
2022-12-22T15:59:25.893Z,6.61
2022-12-22T16:04:30.404Z,6.61
2022-12-22T16:09:39.980Z,6.57
2022-12-22T16:14:50.014Z,6.63
2022-12-22T16:19:54.882Z,6.80
2022-12-22T16:24:57.941Z,6.75
2022-12-22T16:30:00.778Z,6.78
2022-12-22T16:35:16.272Z,6.73
2022-12-22T16:40:20.090Z,6.64
2022-12-22T16:45:25.183Z,6.53
2022-12-22T16:50:33.286Z,6.52
2022-12-22T16:55:36.054Z,6.62
2022-12-22T17:00:40.601Z,6.68
2022-12-22T17:05:49.069Z,6.67
2022-12-22T17:10:52.803Z,6.74
2022-12-22T17:15:55.610Z,6.78
2022-12-22T17:21:01.230Z,6.76
2022-12-22T17:26:08.679Z,6.78
2022-12-22T17:31:16.494Z,6.73
2022-12-22T17:36:29.493Z,6.90
2022-12-22T17:41:32.480Z,6.78
2022-12-22T17:46:35.327Z,6.89
2022-12-22T17:51:40.769Z,6.95
2022-12-22T17:56:43.561Z,6.88
2022-12-22T18:01:46.390Z,6.99
2022-12-22T18:06:50.560Z,7.02
2022-12-22T18:11:54.618Z,7.01
2022-12-22T18:16:57.563Z,7.16
2022-12-22T18:22:01.598Z,7.09
2022-12-22T18:27:04.557Z,7.05
2022-12-22T18:32:09.295Z,6.85
2022-12-22T18:37:17.542Z,6.93
2022-12-22T18:42:22.690Z,6.90
2022-12-22T18:47:25.396Z,6.80
2022-12-22T18:52:30.926Z,6.56
2022-12-22T18:57:33.615Z,6.55
2022-12-22T19:02:36.279Z,6.47
2022-12-22T19:07:40.539Z,6.40
2022-12-22T19:12:43.520Z,6.37
2022-12-22T19:17:46.420Z,6.34
2022-12-22T19:22:51.131Z,6.36
2022-12-22T19:27:57.423Z,6.51
2022-12-22T19:33:03.046Z,6.31
2022-12-22T19:38:19.786Z,6.41
2022-12-22T19:43:22.656Z,6.51
2022-12-22T19:48:27.682Z,6.54
2022-12-22T19:53:31.782Z,6.55
2022-12-22T19:58:40.630Z,6.58
2022-12-22T20:03:43.446Z,6.58
2022-12-22T20:08:47.625Z,6.63
2022-12-22T20:13:50.482Z,6.66
2022-12-22T20:18:53.333Z,6.68
2022-12-22T20:24:01.048Z,6.68
2022-12-22T20:29:03.827Z,6.70
2022-12-22T20:34:06.816Z,6.66
2022-12-22T20:39:16.377Z,6.68
2022-12-22T20:44:19.180Z,6.61
2022-12-22T20:49:21.943Z,6.68
2022-12-22T20:54:26.064Z,6.78
2022-12-22T20:59:29.177Z,6.80
2022-12-22T21:04:32.443Z,6.83
2022-12-22T21:09:36.815Z,6.82
2022-12-22T21:14:39.759Z,6.99
2022-12-22T21:19:42.526Z,7.06
2022-12-22T21:24:46.680Z,7.16
2022-12-22T21:29:49.437Z,7.16
2022-12-22T21:34:52.232Z,7.14
2022-12-22T21:39:56.393Z,7.25
2022-12-22T21:44:59.516Z,7.35
2022-12-22T21:50:02.300Z,7.25
2022-12-22T21:55:07.336Z,7.39
2022-12-22T22:00:13.623Z,7.34
2022-12-22T22:05:24.155Z,7.46
2022-12-22T22:10:30.454Z,7.37
2022-12-22T22:15:33.703Z,7.32
2022-12-22T22:20:36.552Z,7.32
2022-12-22T22:25:40.921Z,7.47
2022-12-22T22:30:43.808Z,7.47
2022-12-22T22:35:46.758Z,7.59
2022-12-22T22:40:51.254Z,7.59
2022-12-22T22:45:54.025Z,7.72
2022-12-22T22:50:56.818Z,7.71
2022-12-22T22:56:03.688Z,7.41
2022-12-22T23:01:07.711Z,7.35
2022-12-22T23:06:13.652Z,7.63
2022-12-22T23:11:18.155Z,7.53
2022-12-22T23:16:21.912Z,7.51
2022-12-22T23:21:24.925Z,7.69
2022-12-22T23:26:29.139Z,7.69
2022-12-22T23:31:32.453Z,7.79
2022-12-22T23:36:35.441Z,7.61
2022-12-22T23:41:39.667Z,7.56
2022-12-22T23:46:42.486Z,7.87
2022-12-22T23:51:45.354Z,7.66
2022-12-22T23:56:49.531Z,7.92
